Time;durP1;ratioP1;P1;durP2;ratioP2;P2;SDS_P1;SDS_P2;PMS_P1;PMS_P2;Temp;Humidity;BMP_temperature;BMP_pressure;BME280_temperature;BME280_humidity;BME280_pressure;Samples;Min_cycle;Max_cycle;Signal;HPM_P1;HPM_P2
2022/05/11 00:00:44;;;;;;;;;;;17.30;99.90;;;;;;5042491;28;19933;-66
2022/05/11 00:03:10;;;;;;;;;;;17.30;99.90;;;;;;5038872;28;19928;-66
2022/05/11 00:05:37;;;;;;;;;;;17.30;99.90;;;;;;5041800;28;19921;-67
2022/05/11 00:08:04;;;;;;;;;;;17.30;99.90;;;;;;5042751;28;19922;-67
2022/05/11 00:10:33;;;;;;;;;;;17.30;99.90;;;;;;5044252;28;19921;-66
2022/05/11 00:12:59;;;;;;;;;;;17.30;99.90;;;;;;5034244;28;20227;-67
2022/05/11 00:15:26;;;;;;;;;;;17.30;99.90;;;;;;5039457;28;20239;-66
2022/05/11 00:17:53;;;;;;;;;;;17.30;99.90;;;;;;5048776;28;19927;-67
2022/05/11 00:20:20;;;;;;;;;;;17.20;99.90;;;;;;5065058;28;19920;-67
2022/05/11 00:22:46;;;;;;;;;;;17.10;99.90;;;;;;5065261;28;19958;-65
2022/05/11 00:25:14;;;;;;;;;;;17.10;99.90;;;;;;5051368;28;19927;-66
2022/05/11 00:27:42;;;;;;;;;;;17.10;99.90;;;;;;5045750;28;19921;-67
2022/05/11 00:30:10;;;;;;;;;;;17.00;99.90;;;;;;5045734;28;20243;-66
2022/05/11 00:32:36;;;;;;;;;;;17.00;99.90;;;;;;5045675;28;19921;-66
2022/05/11 00:35:03;;;;;;;;;;;16.90;99.90;;;;;;5060167;28;19928;-67
2022/05/11 00:37:30;;;;;;;;;;;16.90;99.90;;;;;;5065295;28;19944;-66
2022/05/11 00:39:57;;;;;;;;;;;16.80;99.90;;;;;;5051380;28;19943;-66
2022/05/11 00:42:24;;;;;;;;;;;16.80;99.90;;;;;;5045601;28;20235;-65
2022/05/11 00:44:53;;;;;;;;;;;16.80;99.90;;;;;;5041036;28;19984;-66
2022/05/11 00:47:22;;;;;;;;;;;16.70;99.90;;;;;;5034386;28;19921;-67
2022/05/11 00:49:51;;;;;;;;;;;16.70;99.90;;;;;;5054928;28;19920;-67
2022/05/11 00:52:22;;;;;;;;;;;16.70;99.90;;;;;;5036783;28;19943;-67
2022/05/11 00:54:51;;;;;;;;;;;16.60;99.90;;;;;;5045319;28;19921;-66
2022/05/11 00:57:19;;;;;;;;;;;16.60;99.90;;;;;;5044379;28;19921;-67
2022/05/11 00:59:47;;;;;;;;;;;16.60;99.90;;;;;;5045158;28;20105;-67
2022/05/11 01:02:15;;;;;;;;;;;16.50;99.90;;;;;;5045392;28;19996;-67
2022/05/11 01:04:43;;;;;;;;;;;16.50;99.90;;;;;;5038633;28;19921;-66
2022/05/11 01:07:10;;;;;;;;;;;16.40;99.90;;;;;;5024787;28;19925;-66
2022/05/11 01:09:37;;;;;;;;;;;16.40;99.90;;;;;;5061472;28;20147;-66
2022/05/11 01:12:06;;;;;;;;;;;16.30;99.90;;;;;;5050081;28;19921;-67
2022/05/11 01:14:35;;;;;;;;;;;16.30;99.90;;;;;;5044836;28;19927;-66
2022/05/11 01:17:02;;;;;;;;;;;16.30;99.90;;;;;;5044250;28;20124;-66
2022/05/11 01:19:32;;;;;;;;;;;16.20;99.90;;;;;;5051929;28;19921;-67
2022/05/11 01:22:03;;;;;;;;;;;16.10;99.90;;;;;;5065142;28;19921;-67
2022/05/11 01:24:34;;;;;;;;;;;16.10;99.90;;;;;;5063441;28;20205;-67
2022/05/11 01:27:15;;;;;;;;;;;16.10;99.90;;;;;;5043981;28;19921;-67
2022/05/11 01:29:42;;;;;;;;;;;16.00;99.90;;;;;;5043622;28;20234;-66
2022/05/11 01:32:08;;;;;;;;;;;16.00;99.90;;;;;;5044592;28;20089;-67
2022/05/11 01:34:35;;;;;;;;;;;16.00;99.90;;;;;;5054380;28;20027;-66
2022/05/11 01:37:01;;;;;;;;;;;16.00;99.90;;;;;;5063916;28;19928;-66
2022/05/11 01:39:28;;;;;;;;;;;15.90;99.90;;;;;;5054945;28;19922;-66
2022/05/11 01:41:56;;;;;;;;;;;15.90;99.90;;;;;;5033523;28;19928;-66
2022/05/11 01:44:23;;;;;;;;;;;15.80;99.90;;;;;;5032611;28;20093;-71
2022/05/11 01:46:50;;;;;;;;;;;15.80;99.90;;;;;;5031255;28;19921;-66
2022/05/11 01:49:18;;;;;;;;;;;15.80;99.90;;;;;;5057860;28;19921;-66
2022/05/11 01:51:45;;;;;;;;;;;15.70;99.90;;;;;;5064517;28;19927;-67
2022/05/11 01:54:12;;;;;;;;;;;15.70;99.90;;;;;;5055541;28;20204;-66
2022/05/11 01:56:39;;;;;;;;;;;15.70;99.90;;;;;;5043444;28;20211;-66
2022/05/11 01:59:07;;;;;;;;;;;15.70;99.90;;;;;;5043875;28;20200;-67
2022/05/11 02:01:35;;;;;;;;;;;15.60;99.90;;;;;;5036155;28;19921;-67
2022/05/11 02:04:01;;;;;;;;;;;15.50;99.90;;;;;;5058755;28;19925;-65
2022/05/11 02:09:13;;;;;;;;;;;15.40;99.90;;;;;;5051500;28;19955;-66
2022/05/11 02:11:40;;;;;;;;;;;15.30;99.90;;;;;;5043894;28;19921;-66
2022/05/11 02:14:08;;;;;;;;;;;15.30;99.90;;;;;;5044246;28;19928;-66
2022/05/11 02:16:35;;;;;;;;;;;15.30;99.90;;;;;;5045314;28;19929;-66
2022/05/11 02:19:02;;;;;;;;;;;15.30;99.90;;;;;;5045188;28;19921;-67
2022/05/11 02:21:28;;;;;;;;;;;15.30;99.90;;;;;;5024172;28;19929;-66
2022/05/11 02:23:55;;;;;;;;;;;15.20;99.90;;;;;;5039270;28;19921;-66
2022/05/11 02:26:21;;;;;;;;;;;15.20;99.90;;;;;;5042881;28;19928;-66
2022/05/11 02:28:48;;;;;;;;;;;15.20;99.90;;;;;;5043811;28;19921;-66
2022/05/11 02:31:16;;;;;;;;;;;15.10;99.90;;;;;;5044734;28;19921;-67
2022/05/11 02:33:42;;;;;;;;;;;15.10;99.90;;;;;;5063323;28;19921;-66
2022/05/11 02:36:09;;;;;;;;;;;15.10;99.90;;;;;;5062960;28;19921;-66
2022/05/11 02:38:36;;;;;;;;;;;15.10;99.90;;;;;;5048252;28;19921;-66
2022/05/11 02:41:02;;;;;;;;;;;15.00;99.90;;;;;;5042716;28;19921;-67
2022/05/11 02:43:29;;;;;;;;;;;14.90;99.90;;;;;;5043351;28;19929;-67
2022/05/11 02:45:56;;;;;;;;;;;14.90;99.90;;;;;;5040296;28;19928;-66
2022/05/11 02:48:25;;;;;;;;;;;14.90;99.90;;;;;;5043143;28;20112;-66
2022/05/11 02:50:52;;;;;;;;;;;14.80;99.90;;;;;;5043138;28;19925;-65
2022/05/11 02:53:19;;;;;;;;;;;14.80;99.90;;;;;;5043474;28;20120;-66
2022/05/11 02:55:47;;;;;;;;;;;14.80;99.90;;;;;;5042625;28;19929;-66
2022/05/11 02:58:14;;;;;;;;;;;14.80;99.90;;;;;;5043211;28;19952;-65
2022/05/11 03:00:42;;;;;;;;;;;14.80;99.90;;;;;;5044957;28;20235;-65
2022/05/11 03:03:09;;;;;;;;;;;14.70;99.90;;;;;;5043218;28;19989;-66
2022/05/11 03:05:37;;;;;;;;;;;14.70;99.90;;;;;;5042363;28;19929;-66
2022/05/11 03:08:04;;;;;;;;;;;14.70;99.90;;;;;;5043495;28;19980;-66
2022/05/11 03:10:31;;;;;;;;;;;14.70;99.90;;;;;;5042923;28;20116;-66
2022/05/11 03:12:58;;;;;;;;;;;14.70;99.90;;;;;;5043309;28;19921;-66
2022/05/11 03:15:25;;;;;;;;;;;14.70;99.90;;;;;;5042656;28;19921;-66
2022/05/11 03:17:52;;;;;;;;;;;14.60;99.90;;;;;;5042782;28;19921;-66
2022/05/11 03:20:21;;;;;;;;;;;14.60;99.90;;;;;;5043058;28;19921;-66
2022/05/11 03:22:50;;;;;;;;;;;14.60;99.90;;;;;;5043007;28;19921;-66
2022/05/11 03:25:16;;;;;;;;;;;14.60;99.90;;;;;;5042306;28;19928;-67
2022/05/11 03:27:43;;;;;;;;;;;14.60;99.90;;;;;;5043171;28;19921;-66
2022/05/11 03:30:10;;;;;;;;;;;14.60;99.90;;;;;;5055879;28;19939;-66
2022/05/11 03:35:21;;;;;;;;;;;14.50;99.90;;;;;;5042385;28;20120;-66
2022/05/11 03:37:49;;;;;;;;;;;14.50;99.90;;;;;;5043040;28;19928;-66
2022/05/11 03:40:15;;;;;;;;;;;14.50;99.90;;;;;;5041975;28;19921;-67
2022/05/11 03:42:42;;;;;;;;;;;14.50;99.90;;;;;;5042779;28;19928;-66
2022/05/11 03:45:10;;;;;;;;;;;14.50;99.90;;;;;;5034310;28;20135;-66
2022/05/11 03:47:37;;;;;;;;;;;14.50;99.90;;;;;;5040546;28;20208;-65
2022/05/11 03:50:04;;;;;;;;;;;14.50;99.90;;;;;;5033417;28;19944;-66
2022/05/11 03:52:30;;;;;;;;;;;14.50;99.90;;;;;;5025688;28;19928;-67
2022/05/11 03:54:58;;;;;;;;;;;14.50;99.90;;;;;;5026479;28;19989;-66
2022/05/11 03:57:25;;;;;;;;;;;14.50;99.90;;;;;;5034183;28;20200;-66
2022/05/11 03:59:51;;;;;;;;;;;14.50;99.90;;;;;;5038031;28;19921;-66
2022/05/11 04:02:18;;;;;;;;;;;14.40;99.90;;;;;;5035164;28;19928;-67
2022/05/11 04:04:45;;;;;;;;;;;14.40;99.90;;;;;;5026543;28;19929;-66
2022/05/11 04:07:12;;;;;;;;;;;14.30;99.90;;;;;;5026334;28;19922;-66
2022/05/11 04:09:39;;;;;;;;;;;14.30;99.90;;;;;;5026626;28;19975;-66
2022/05/11 04:12:08;;;;;;;;;;;14.30;99.90;;;;;;5043330;28;19927;-66
2022/05/11 04:14:35;;;;;;;;;;;14.30;99.90;;;;;;5066330;28;20147;-66
2022/05/11 04:17:02;;;;;;;;;;;14.30;99.90;;;;;;5065433;28;19921;-66
2022/05/11 04:19:28;;;;;;;;;;;14.30;99.90;;;;;;5066388;28;19924;-67
2022/05/11 04:21:55;;;;;;;;;;;14.30;99.90;;;;;;5048751;28;19921;-67
2022/05/11 04:24:22;;;;;;;;;;;14.30;99.90;;;;;;5046189;28;19944;-66
2022/05/11 04:26:49;;;;;;;;;;;14.30;99.90;;;;;;5045461;28;19921;-66
2022/05/11 04:29:17;;;;;;;;;;;14.30;99.90;;;;;;5046076;28;19925;-66
2022/05/11 04:31:44;;;;;;;;;;;14.30;99.90;;;;;;5046098;28;20228;-66
2022/05/11 04:34:11;;;;;;;;;;;14.30;99.90;;;;;;5045799;28;19920;-66
2022/05/11 04:36:39;;;;;;;;;;;14.30;99.90;;;;;;5042206;28;19936;-66
2022/05/11 04:39:06;;;;;;;;;;;14.30;99.90;;;;;;5045971;28;19972;-66
2022/05/11 04:41:33;;;;;;;;;;;14.30;99.90;;;;;;5045736;28;19921;-66
2022/05/11 04:44:00;;;;;;;;;;;14.30;99.90;;;;;;5045618;28;20209;-66
2022/05/11 04:46:27;;;;;;;;;;;14.30;99.90;;;;;;5044871;28;19921;-66
2022/05/11 04:49:16;;;;;;;;;;;14.30;99.90;;;;;;5045845;28;19928;-65
2022/05/11 04:51:42;;;;;;;;;;;14.30;99.90;;;;;;5040781;28;19961;-66
2022/05/11 04:54:08;;;;;;;;;;;14.30;99.90;;;;;;5043760;28;19921;-66
2022/05/11 04:56:37;;;;;;;;;;;14.30;99.90;;;;;;5044272;28;19922;-66
2022/05/11 04:59:04;;;;;;;;;;;14.30;99.90;;;;;;5030659;28;19921;-66
2022/05/11 05:01:33;;;;;;;;;;;14.30;99.90;;;;;;5045432;28;20144;-66
2022/05/11 05:04:00;;;;;;;;;;;14.40;99.90;;;;;;5043696;28;20220;-64
2022/05/11 05:06:27;;;;;;;;;;;14.40;99.90;;;;;;5034410;28;19921;-66
2022/05/11 05:08:55;;;;;;;;;;;14.50;99.90;;;;;;5045465;28;19980;-67
2022/05/11 05:11:21;;;;;;;;;;;14.50;99.90;;;;;;5043333;28;20203;-69
2022/05/11 05:13:50;;;;;;;;;;;14.60;99.90;;;;;;5042787;28;19927;-70
2022/05/11 05:16:17;;;;;;;;;;;14.70;99.90;;;;;;5040826;28;19921;-69
2022/05/11 05:18:45;;;;;;;;;;;14.80;99.90;;;;;;5045156;28;20362;-69
2022/05/11 05:21:12;;;;;;;;;;;14.80;99.90;;;;;;5044384;28;20231;-70
2022/05/11 05:23:39;;;;;;;;;;;14.90;99.90;;;;;;5045397;28;19939;-69
2022/05/11 05:26:05;;;;;;;;;;;15.00;99.90;;;;;;5044298;28;19921;-70
2022/05/11 05:31:17;;;;;;;;;;;15.10;99.90;;;;;;5044913;28;20223;-70
2022/05/11 05:33:45;;;;;;;;;;;15.20;99.90;;;;;;5044777;28;20116;-69
2022/05/11 05:36:12;;;;;;;;;;;15.30;99.90;;;;;;5076016;22;19927;-72
2022/05/11 05:38:39;;;;;;;;;;;15.40;99.90;;;;;;5054439;28;19928;-69
2022/05/11 05:41:06;;;;;;;;;;;15.50;99.90;;;;;;5055731;28;19927;-69
2022/05/11 05:43:32;;;;;;;;;;;15.60;99.90;;;;;;5062214;28;19928;-69
2022/05/11 05:45:59;;;;;;;;;;;15.60;99.90;;;;;;5064143;28;19990;-69
2022/05/11 05:48:25;;;;;;;;;;;15.60;99.90;;;;;;5065041;28;19927;-69
2022/05/11 05:50:53;;;;;;;;;;;15.80;99.90;;;;;;5064324;28;19981;-69
2022/05/11 05:53:21;;;;;;;;;;;15.80;99.90;;;;;;5061541;28;19986;-69
2022/05/11 05:55:48;;;;;;;;;;;15.90;99.90;;;;;;5063538;28;19921;-69
2022/05/11 05:58:15;;;;;;;;;;;15.90;99.90;;;;;;5064458;28;19943;-69
2022/05/11 06:00:42;;;;;;;;;;;16.00;99.90;;;;;;5064161;28;19920;-69
2022/05/11 06:03:08;;;;;;;;;;;16.10;99.90;;;;;;5064032;28;19924;-69
2022/05/11 06:05:35;;;;;;;;;;;16.20;99.90;;;;;;5063193;28;20204;-69
2022/05/11 06:08:03;;;;;;;;;;;16.30;99.90;;;;;;5063941;28;20065;-69
2022/05/11 06:10:29;;;;;;;;;;;16.40;99.90;;;;;;5063942;28;19921;-69
2022/05/11 06:12:56;;;;;;;;;;;16.50;99.90;;;;;;5061695;28;19942;-69
2022/05/11 06:15:23;;;;;;;;;;;16.60;99.90;;;;;;5062364;28;19936;-69
2022/05/11 06:17:49;;;;;;;;;;;16.70;99.90;;;;;;5063675;28;20226;-69
2022/05/11 06:20:16;;;;;;;;;;;16.70;99.90;;;;;;5063603;28;20005;-69
2022/05/11 06:22:42;;;;;;;;;;;16.70;99.90;;;;;;5063590;28;19928;-68
2022/05/11 06:25:10;;;;;;;;;;;16.80;99.90;;;;;;5063250;28;19921;-69
2022/05/11 06:27:37;;;;;;;;;;;16.80;99.90;;;;;;5063466;28;19984;-69
2022/05/11 06:30:05;;;;;;;;;;;16.90;99.90;;;;;;5063650;28;19921;-69
2022/05/11 06:32:32;;;;;;;;;;;16.90;99.90;;;;;;5063646;28;19975;-69
2022/05/11 06:34:59;;;;;;;;;;;17.10;99.90;;;;;;5063091;28;19927;-69
2022/05/11 06:37:25;;;;;;;;;;;17.00;99.90;;;;;;5062953;28;20200;-69
2022/05/11 06:39:53;;;;;;;;;;;17.20;99.90;;;;;;5063859;28;19925;-69
2022/05/11 06:42:22;;;;;;;;;;;17.30;99.90;;;;;;5063732;28;19921;-68
2022/05/11 06:44:49;;;;;;;;;;;17.50;99.90;;;;;;5063075;28;19920;-69
2022/05/11 06:47:15;;;;;;;;;;;17.60;99.90;;;;;;5062484;28;19921;-69
2022/05/11 06:49:42;;;;;;;;;;;17.70;99.90;;;;;;5063102;28;19984;-69
2022/05/11 06:52:09;;;;;;;;;;;17.80;99.90;;;;;;5061342;28;20247;-69
2022/05/11 07:00:06;;;;;;;;;;;18.20;99.90;;;;;;5062806;28;19927;-70
2022/05/11 07:02:34;;;;;;;;;;;18.30;99.90;;;;;;5062422;28;19921;-69
2022/05/11 07:05:01;;;;;;;;;;;18.40;99.90;;;;;;5063110;28;20204;-69
2022/05/11 07:07:28;;;;;;;;;;;18.60;99.90;;;;;;5062503;28;19921;-69
2022/05/11 07:09:55;;;;;;;;;;;18.70;99.90;;;;;;5063054;28;19921;-69
2022/05/11 07:12:25;;;;;;;;;;;18.90;99.90;;;;;;5060786;28;19933;-69
2022/05/11 07:14:53;;;;;;;;;;;19.00;99.90;;;;;;5062954;28;19921;-69
2022/05/11 07:17:27;;;;;;;;;;;19.00;99.90;;;;;;5062420;28;19921;-69
2022/05/11 07:19:54;;;;;;;;;;;19.10;99.90;;;;;;5063136;28;19921;-69
2022/05/11 07:22:20;;;;;;;;;;;19.20;99.90;;;;;;5063180;28;19921;-69
2022/05/11 07:24:47;;;;;;;;;;;19.40;99.90;;;;;;5062881;28;19921;-69
2022/05/11 07:27:13;;;;;;;;;;;19.50;99.90;;;;;;5064698;28;19921;-69
2022/05/11 07:29:41;;;;;;;;;;;19.60;99.90;;;;;;5066963;28;19921;-69
2022/05/11 07:32:09;;;;;;;;;;;19.70;99.90;;;;;;5066694;28;19921;-69
2022/05/11 07:34:36;;;;;;;;;;;19.80;99.90;;;;;;5066933;28;19920;-69
2022/05/11 07:37:02;;;;;;;;;;;19.90;99.90;;;;;;5066072;28;19921;-69
2022/05/11 07:39:29;;;;;;;;;;;19.90;99.90;;;;;;5066658;28;19921;-69
2022/05/11 07:41:56;;;;;;;;;;;20.00;99.90;;;;;;5066650;28;19920;-69
2022/05/11 07:44:22;;;;;;;;;;;20.10;99.90;;;;;;5066960;28;19921;-69
2022/05/11 07:46:51;;;;;;;;;;;20.20;99.90;;;;;;5066026;28;19928;-69
2022/05/11 07:49:18;;;;;;;;;;;20.30;99.90;;;;;;5066711;28;19952;-69
2022/05/11 07:51:46;;;;;;;;;;;20.30;99.90;;;;;;5064100;28;19951;-69
2022/05/11 07:54:13;;;;;;;;;;;20.40;99.90;;;;;;5066116;28;19925;-69
2022/05/11 08:02:09;;;;;;;;;;;20.70;99.90;;;;;;5066280;28;19980;-69
2022/05/11 08:04:38;;;;;;;;;;;20.80;99.90;;;;;;5066309;28;20212;-69
2022/05/11 08:07:05;;;;;;;;;;;20.90;99.90;;;;;;5065181;28;19927;-69
2022/05/11 08:09:32;;;;;;;;;;;21.00;99.90;;;;;;5066591;28;19921;-69
2022/05/11 08:11:58;;;;;;;;;;;21.10;99.90;;;;;;5064575;28;20123;-68
2022/05/11 08:14:25;;;;;;;;;;;21.20;99.90;;;;;;5065289;28;19924;-69
2022/05/11 08:16:53;;;;;;;;;;;21.10;99.90;;;;;;5065707;28;19920;-69
2022/05/11 08:19:21;;;;;;;;;;;21.20;99.90;;;;;;5065994;28;19967;-69
2022/05/11 08:21:48;;;;;;;;;;;21.30;99.90;;;;;;5065822;28;19921;-69
2022/05/11 08:24:15;;;;;;;;;;;21.40;99.90;;;;;;5065958;28;20120;-69
2022/05/11 08:26:42;;;;;;;;;;;21.50;99.90;;;;;;5065141;28;20112;-69
2022/05/11 08:29:08;;;;;;;;;;;21.60;99.90;;;;;;5065917;28;19921;-69
2022/05/11 08:34:21;;;;;;;;;;;21.80;99.90;;;;;;5065959;28;20150;-69
2022/05/11 08:36:47;;;;;;;;;;;21.90;99.90;;;;;;5064501;28;19927;-69
2022/05/11 08:39:14;;;;;;;;;;;21.90;99.90;;;;;;5064633;28;19927;-69
2022/05/11 08:41:44;;;;;;;;;;;22.00;99.90;;;;;;5065557;28;20230;-69
2022/05/11 08:44:14;;;;;;;;;;;22.00;99.90;;;;;;5065991;28;19921;-69
2022/05/11 08:46:46;;;;;;;;;;;22.10;99.90;;;;;;5064555;28;19929;-69
2022/05/11 08:49:17;;;;;;;;;;;22.20;99.90;;;;;;5065662;28;19921;-69
2022/05/11 08:51:47;;;;;;;;;;;22.30;99.90;;;;;;5063318;28;20427;-69
2022/05/11 08:54:16;;;;;;;;;;;22.30;99.90;;;;;;5065341;28;20224;-69
2022/05/11 08:56:44;;;;;;;;;;;22.30;99.90;;;;;;5064647;28;19920;-69
2022/05/11 08:59:14;;;;;;;;;;;22.40;99.90;;;;;;5065064;28;19928;-69
2022/05/11 09:01:46;;;;;;;;;;;22.40;99.90;;;;;;5064896;28;19995;-69
2022/05/11 09:04:13;;;;;;;;;;;22.40;99.90;;;;;;5065603;28;19921;-69
2022/05/11 09:06:43;;;;;;;;;;;22.50;99.90;;;;;;5064492;28;19928;-69
2022/05/11 09:09:12;;;;;;;;;;;22.50;99.90;;;;;;5045138;28;20263;-69
2022/05/11 09:11:42;;;;;;;;;;;22.60;99.90;;;;;;5045024;28;19928;-69
2022/05/11 09:14:08;;;;;;;;;;;22.70;99.90;;;;;;5043108;28;19951;-70
2022/05/11 09:16:38;;;;;;;;;;;22.80;99.90;;;;;;5062851;28;20003;-69
2022/05/11 09:19:09;;;;;;;;;;;22.90;99.90;;;;;;5064919;28;19920;-69
2022/05/11 09:21:37;;;;;;;;;;;22.90;99.90;;;;;;5064761;28;19927;-69
2022/05/11 09:24:09;;;;;;;;;;;23.00;99.90;;;;;;5063313;28;19927;-69
2022/05/11 09:26:38;;;;;;;;;;;23.00;99.90;;;;;;5063827;28;19920;-68
2022/05/11 09:29:13;;;;;;;;;;;23.10;99.90;;;;;;5064591;28;19927;-68
2022/05/11 09:31:40;;;;;;;;;;;23.20;99.90;;;;;;5064763;28;19920;-68
2022/05/11 09:34:08;;;;;;;;;;;23.20;99.90;;;;;;5064715;28;20204;-68
2022/05/11 09:36:35;;;;;;;;;;;23.40;99.90;;;;;;5063718;28;19986;-68
2022/05/11 09:39:05;;;;;;;;;;;23.40;99.90;;;;;;5065468;28;19928;-69
2022/05/11 09:41:33;;;;;;;;;;;23.60;99.90;;;;;;5065485;28;20369;-68
2022/05/11 09:44:16;;;;;;;;;;;23.60;99.90;;;;;;5064556;28;20119;-69
2022/05/11 09:46:43;;;;;;;;;;;23.70;99.90;;;;;;5064050;28;19921;-69
2022/05/11 09:49:13;;;;;;;;;;;23.80;99.90;;;;;;5064332;28;19920;-68
2022/05/11 09:51:43;;;;;;;;;;;23.80;99.90;;;;;;5064748;28;20239;-68
2022/05/11 09:54:23;;;;;;;;;;;23.80;99.90;;;;;;5064207;28;20231;-69
2022/05/11 09:56:55;;;;;;;;;;;23.80;99.90;;;;;;5061292;28;20116;-68
2022/05/11 09:59:25;;;;;;;;;;;23.90;99.90;;;;;;5064769;28;19966;-68
2022/05/11 10:01:55;;;;;;;;;;;23.90;99.90;;;;;;5064517;28;19927;-68
2022/05/11 10:04:27;;;;;;;;;;;24.00;99.90;;;;;;5064359;28;19920;-69
2022/05/11 10:06:56;;;;;;;;;;;24.10;99.90;;;;;;5060175;28;20202;-68
2022/05/11 10:09:27;;;;;;;;;;;24.20;99.90;;;;;;5064237;28;19921;-68
2022/05/11 10:11:54;;;;;;;;;;;24.20;99.90;;;;;;5063857;28;19984;-69
2022/05/11 10:22:41;;;;;;;;;;;24.50;99.90;;;;;;5063808;28;19936;-69
2022/05/11 10:25:19;;;;;;;;;;;24.50;99.90;;;;;;5060166;28;20230;-69
2022/05/11 10:27:46;;;;;;;;;;;24.50;99.90;;;;;;5058986;28;19927;-69
2022/05/11 10:30:18;;;;;;;;;;;24.50;99.90;;;;;;5063557;28;19924;-69
2022/05/11 10:32:53;;;;;;;;;;;24.50;99.90;;;;;;5063354;28;19928;-69
2022/05/11 10:35:22;;;;;;;;;;;24.50;99.90;;;;;;5058630;28;19929;-69
2022/05/11 10:37:56;;;;;;;;;;;24.60;99.90;;;;;;5060829;28;19996;-69
2022/05/11 10:40:29;;;;;;;;;;;24.70;99.90;;;;;;5063373;28;19928;-69
2022/05/11 10:43:04;;;;;;;;;;;24.80;99.90;;;;;;5063311;28;19955;-69
2022/05/11 10:45:35;;;;;;;;;;;25.10;99.90;;;;;;5062665;28;20283;-69
2022/05/11 10:48:17;;;;;;;;;;;25.20;99.90;;;;;;5060642;28;19929;-69
2022/05/11 10:50:50;;;;;;;;;;;25.20;99.90;;;;;;5063417;28;19941;-68
2022/05/11 10:53:20;;;;;;;;;;;25.30;99.90;;;;;;5060078;28;19921;-69
2022/05/11 10:55:53;;;;;;;;;;;25.30;99.90;;;;;;5062710;28;19927;-69
2022/05/11 10:58:36;;;;;;;;;;;25.40;99.90;;;;;;5063562;28;19920;-69
2022/05/11 11:01:06;;;;;;;;;;;25.50;99.90;;;;;;5063056;28;20120;-69
2022/05/11 11:03:42;;;;;;;;;;;25.70;99.90;;;;;;5063536;28;19921;-69
2022/05/11 11:09:10;;;;;;;;;;;26.00;99.90;;;;;;5063151;28;19923;-69
2022/05/11 11:11:39;;;;;;;;;;;26.20;99.00;;;;;;5063652;28;19921;-69
2022/05/11 11:14:09;;;;;;;;;;;26.20;98.10;;;;;;5063455;28;20127;-69
2022/05/11 11:16:38;;;;;;;;;;;26.30;99.40;;;;;;5062348;28;20212;-70
2022/05/11 11:19:05;;;;;;;;;;;26.50;98.20;;;;;;5063263;28;19921;-69
2022/05/11 11:21:32;;;;;;;;;;;26.60;97.80;;;;;;5063506;28;19920;-69
2022/05/11 11:24:14;;;;;;;;;;;26.80;98.20;;;;;;5063400;28;19927;-69
2022/05/11 11:26:48;;;;;;;;;;;26.80;97.00;;;;;;5062393;28;20143;-69
2022/05/11 11:29:19;;;;;;;;;;;26.70;95.80;;;;;;5063337;28;19921;-69
2022/05/11 11:32:16;;;;;;;;;;;26.80;96.90;;;;;;5063241;28;19966;-70
2022/05/11 11:34:45;;;;;;;;;;;26.90;95.90;;;;;;5063473;28;19962;-69
2022/05/11 11:37:31;;;;;;;;;;;26.90;96.60;;;;;;5110957;23;19920;-66
2022/05/11 11:39:58;;;;;;;;;;;27.10;97.10;;;;;;5102808;28;20210;-67
2022/05/11 11:42:36;;;;;;;;;;;27.30;97.10;;;;;;5102926;28;19920;-66
2022/05/11 11:45:04;;;;;;;;;;;27.30;96.00;;;;;;5102992;28;19977;-65
2022/05/11 11:47:42;;;;;;;;;;;27.40;95.60;;;;;;5100631;28;20232;-65
2022/05/11 11:50:36;;;;;;;;;;;27.40;96.70;;;;;;5100544;28;19920;-64
2022/05/11 11:53:12;;;;;;;;;;;27.30;94.70;;;;;;5100119;28;19920;-67
2022/05/11 11:55:40;;;;;;;;;;;27.40;95.30;;;;;;5102426;28;20230;-67
2022/05/11 11:58:14;;;;;;;;;;;27.50;95.90;;;;;;5084065;28;19960;-65
2022/05/11 12:01:02;;;;;;;;;;;27.70;94.70;;;;;;5096368;28;19921;-64
2022/05/11 12:03:31;;;;;;;;;;;27.80;94.90;;;;;;5101150;28;19951;-64
2022/05/11 12:15:01;;;;;;;;;;;28.00;94.60;;;;;;5088129;28;19920;-64
2022/05/11 12:17:02;;;;;;;;;;;28.40;92.90;;;;;;5085385;28;19923;-65
2022/05/11 12:19:30;;;;;;;;;;;28.50;94.20;;;;;;5106194;28;19920;-65
2022/05/11 12:22:01;;;;;;;;;;;28.70;92.90;;;;;;5103115;28;19928;-65
2022/05/11 12:24:30;;;;;;;;;;;28.60;92.30;;;;;;5106137;28;19942;-65
2022/05/11 12:26:57;;;;;;;;;;;28.60;93.10;;;;;;5105793;28;20122;-64
2022/05/11 12:32:08;;;;;;;;;;;28.60;91.70;;;;;;5092933;28;20325;-65
2022/05/11 12:34:40;;;;;;;;;;;28.80;92.30;;;;;;5104802;28;20269;-65
2022/05/11 12:37:21;;;;;;;;;;;29.00;91.30;;;;;;5105698;28;19926;-65
2022/05/11 12:39:54;;;;;;;;;;;29.10;91.90;;;;;;5106357;28;19924;-64
2022/05/11 12:42:26;;;;;;;;;;;29.40;91.10;;;;;;5086115;28;19920;-64
2022/05/11 12:44:53;;;;;;;;;;;29.20;91.50;;;;;;5086041;28;19920;-65
2022/05/11 12:47:20;;;;;;;;;;;29.10;90.90;;;;;;5085209;28;20093;-65
2022/05/11 12:49:47;;;;;;;;;;;29.10;91.20;;;;;;5090300;28;20138;-65
2022/05/11 12:52:17;;;;;;;;;;;29.10;91.30;;;;;;5106132;28;20100;-64
2022/05/11 12:54:55;;;;;;;;;;;29.10;90.90;;;;;;5106052;28;19926;-65
2022/05/11 12:57:22;;;;;;;;;;;29.30;90.40;;;;;;5103927;28;19929;-65
2022/05/11 12:59:49;;;;;;;;;;;29.40;91.00;;;;;;5085875;28;20088;-64
2022/05/11 13:02:16;;;;;;;;;;;29.60;91.60;;;;;;5105041;28;20115;-65
2022/05/11 13:04:51;;;;;;;;;;;29.90;91.60;;;;;;5098732;28;20093;-65
2022/05/11 13:07:21;;;;;;;;;;;30.30;91.20;;;;;;5104811;28;20203;-65
2022/05/11 13:09:49;;;;;;;;;;;30.60;88.00;;;;;;5105017;28;19927;-64
2022/05/11 13:12:16;;;;;;;;;;;30.50;88.20;;;;;;5105288;28;19928;-65
2022/05/11 13:14:45;;;;;;;;;;;30.40;88.70;;;;;;5105671;28;19920;-64
2022/05/11 13:17:18;;;;;;;;;;;30.30;89.20;;;;;;5104762;28;19981;-65
2022/05/11 13:19:52;;;;;;;;;;;30.00;89.10;;;;;;5105668;28;19920;-65
2022/05/11 13:22:22;;;;;;;;;;;30.10;87.90;;;;;;5098544;28;20212;-65
2022/05/11 13:24:49;;;;;;;;;;;30.20;87.10;;;;;;5103690;28;19955;-65
2022/05/11 13:27:30;;;;;;;;;;;30.30;87.60;;;;;;5104387;28;19920;-65
2022/05/11 13:30:14;;;;;;;;;;;29.70;88.10;;;;;;5103980;28;19920;-64
2022/05/11 13:32:41;;;;;;;;;;;29.60;88.20;;;;;;5104686;28;20237;-65
2022/05/11 13:35:15;;;;;;;;;;;29.50;88.40;;;;;;5104967;28;20115;-64
2022/05/11 13:37:53;;;;;;;;;;;29.70;88.80;;;;;;5103972;28;19928;-65
2022/05/11 13:40:25;;;;;;;;;;;29.80;89.00;;;;;;5094450;28;20115;-65
2022/05/11 13:42:52;;;;;;;;;;;30.00;88.20;;;;;;5084673;28;19927;-65
2022/05/11 13:45:21;;;;;;;;;;;30.20;88.50;;;;;;5083896;28;19927;-64
2022/05/11 13:50:36;;;;;;;;;;;30.00;86.80;;;;;;5084291;28;19988;-67
2022/05/11 13:53:05;;;;;;;;;;;29.90;87.00;;;;;;5085770;28;19935;-69
2022/05/11 13:55:33;;;;;;;;;;;29.80;86.40;;;;;;5101391;28;19927;-67
2022/05/11 13:58:18;;;;;;;;;;;29.80;87.40;;;;;;5104485;28;19920;-67
2022/05/11 14:00:45;;;;;;;;;;;29.80;88.20;;;;;;5094274;28;19920;-67
2022/05/11 14:03:14;;;;;;;;;;;30.10;86.90;;;;;;5100402;28;20119;-67
2022/05/11 14:05:41;;;;;;;;;;;30.30;87.10;;;;;;5103630;28;19920;-67
2022/05/11 14:08:10;;;;;;;;;;;30.50;85.60;;;;;;5102148;28;19924;-67
2022/05/11 14:10:37;;;;;;;;;;;30.50;83.80;;;;;;5104118;28;19920;-67
2022/05/11 14:13:03;;;;;;;;;;;30.60;84.80;;;;;;5104540;28;19942;-68
2022/05/11 14:15:30;;;;;;;;;;;30.80;85.90;;;;;;5102788;28;19928;-67
2022/05/11 14:17:57;;;;;;;;;;;30.90;83.90;;;;;;5096744;28;19921;-67
2022/05/11 14:20:25;;;;;;;;;;;31.00;81.50;;;;;;5085877;28;19921;-67
2022/05/11 14:22:52;;;;;;;;;;;31.10;80.90;;;;;;5103356;28;19927;-67
2022/05/11 14:25:20;;;;;;;;;;;31.20;79.00;;;;;;5103863;28;19920;-67
2022/05/11 14:27:47;;;;;;;;;;;31.40;79.60;;;;;;5103930;28;19920;-67
2022/05/11 14:30:15;;;;;;;;;;;31.30;79.10;;;;;;5103938;28;19920;-67
2022/05/11 14:32:42;;;;;;;;;;;31.00;80.30;;;;;;5103870;28;20043;-68
2022/05/11 14:35:12;;;;;;;;;;;30.80;80.40;;;;;;5101890;28;19994;-68
2022/05/11 14:37:39;;;;;;;;;;;30.60;80.90;;;;;;5102796;28;19920;-67
2022/05/11 14:40:07;;;;;;;;;;;30.50;82.30;;;;;;5103824;28;20123;-68
2022/05/11 14:42:35;;;;;;;;;;;30.50;83.30;;;;;;5104053;28;19923;-67
2022/05/11 14:45:01;;;;;;;;;;;30.70;81.20;;;;;;5103739;28;20253;-67
2022/05/11 14:47:28;;;;;;;;;;;30.80;77.80;;;;;;5103299;28;19920;-68
2022/05/11 14:49:55;;;;;;;;;;;30.90;79.40;;;;;;5103301;28;19983;-67
2022/05/11 14:52:22;;;;;;;;;;;30.70;78.50;;;;;;5103711;28;19982;-67
2022/05/11 14:54:48;;;;;;;;;;;30.80;78.80;;;;;;5103468;28;19920;-68
2022/05/11 15:02:44;;;;;;;;;;;31.30;78.20;;;;;;5103617;28;19991;-67
2022/05/11 15:05:12;;;;;;;;;;;31.30;77.40;;;;;;5103045;28;19924;-67
2022/05/11 15:07:39;;;;;;;;;;;31.00;78.40;;;;;;5102771;28;19920;-68
2022/05/11 15:10:06;;;;;;;;;;;31.10;78.70;;;;;;5103248;28;19920;-67
2022/05/11 15:15:18;;;;;;;;;;;31.00;77.90;;;;;;5099299;28;19966;-68
2022/05/11 15:17:45;;;;;;;;;;;31.20;78.70;;;;;;5103303;28;19920;-68
2022/05/11 15:20:13;;;;;;;;;;;31.20;78.70;;;;;;5102367;28;19920;-67